ASH1799 KCRP-KIAH
Flight info
| Callsign | ASH1799 |
|---|---|
| Flight time | 0h 39m |
| Altitude | 27000 |
| Route | DCT CRP HTOWN3 |
| Aircraft | E170/M-SDE3GILORVW/S |
Departure
| Time | 2026-04-20 20:04 |
|---|---|
| Airport | Corpus Christi International Airport (KCRP) |
Arrival
| Time | 2026-04-20 20:43 |
|---|---|
| Airport | George Bush Intercontinental Airport (KIAH) |
| Time | Latitude | Longitude | Altitude | Speed | Heading |
|---|---|---|---|---|---|
| 2026-04-20 19:45 | 27.77338 | -97.50283 | 50 ft | 0 kts | 72° |
| 2026-04-20 19:56 | 27.77337 | -97.50265 | 67 ft | 4 kts | 284° |
| 2026-04-20 19:56 | 27.77328 | -97.50285 | 66 ft | 4 kts | 233° |
| 2026-04-20 19:57 | 27.77311 | -97.50303 | 48 ft | 4 kts | 221° |
| 2026-04-20 19:57 | 27.77304 | -97.50310 | 49 ft | 3 kts | 219° |
| 2026-04-20 19:59 | 27.77291 | -97.50322 | 49 ft | 6 kts | 219° |
| 2026-04-20 20:00 | 27.77243 | -97.50366 | 46 ft | 11 kts | 223° |
| 2026-04-20 20:00 | 27.77182 | -97.50431 | 47 ft | 9 kts | 225° |
| 2026-04-20 20:00 | 27.77168 | -97.50487 | 48 ft | 8 kts | 306° |
| 2026-04-20 20:00 | 27.77219 | -97.50545 | 50 ft | 13 kts | 316° |
| 2026-04-20 20:01 | 27.77288 | -97.50621 | 52 ft | 15 kts | 316° |
| 2026-04-20 20:01 | 27.77367 | -97.50707 | 51 ft | 17 kts | 316° |
| 2026-04-20 20:01 | 27.77456 | -97.50804 | 53 ft | 18 kts | 316° |
| 2026-04-20 20:01 | 27.77553 | -97.50909 | 52 ft | 21 kts | 316° |
| 2026-04-20 20:02 | 27.77658 | -97.51024 | 51 ft | 15 kts | 316° |
| 2026-04-20 20:02 | 27.77714 | -97.51101 | 48 ft | 10 kts | 278° |
| 2026-04-20 20:02 | 27.77717 | -97.51191 | 49 ft | 13 kts | 271° |
| 2026-04-20 20:02 | 27.77716 | -97.51288 | 47 ft | 9 kts | 259° |
| 2026-04-20 20:03 | 27.77687 | -97.51314 | 45 ft | 5 kts | 168° |
| 2026-04-20 20:03 | 27.77666 | -97.51298 | 47 ft | 4 kts | 138° |
| 2026-04-20 20:03 | 27.77559 | -97.51181 | 47 ft | 61 kts | 135° |
| 2026-04-20 20:03 | 27.77015 | -97.50590 | 110 ft | 147 kts | 137° |
| 2026-04-20 20:04 | 27.76229 | -97.49772 | 1181 ft | 162 kts | 135° |
| 2026-04-20 20:04 | 27.75375 | -97.48781 | 2105 ft | 197 kts | 132° |
| 2026-04-20 20:04 | 27.74423 | -97.47697 | 2144 ft | 192 kts | 135° |
| 2026-04-20 20:04 | 27.73411 | -97.46603 | 2720 ft | 203 kts | 135° |
| 2026-04-20 20:05 | 27.72383 | -97.45501 | 3889 ft | 208 kts | 136° |
| 2026-04-20 20:05 | 27.71330 | -97.44326 | 4866 ft | 219 kts | 136° |
| 2026-04-20 20:05 | 27.70159 | -97.43231 | 5953 ft | 221 kts | 157° |
| 2026-04-20 20:05 | 27.68648 | -97.43059 | 6973 ft | 226 kts | 194° |
| 2026-04-20 20:06 | 27.67321 | -97.44002 | 7934 ft | 235 kts | 230° |
| 2026-04-20 20:06 | 27.66467 | -97.45605 | 8804 ft | 246 kts | 240° |
| 2026-04-20 20:06 | 27.65682 | -97.47393 | 9485 ft | 262 kts | 242° |
| 2026-04-20 20:06 | 27.65086 | -97.49391 | 10114 ft | 281 kts | 262° |
| 2026-04-20 20:07 | 27.65431 | -97.51585 | 10917 ft | 292 kts | 292° |
| 2026-04-20 20:07 | 27.66699 | -97.53351 | 11823 ft | 301 kts | 320° |
| 2026-04-20 20:07 | 27.68639 | -97.54279 | 12798 ft | 310 kts | 348° |
| 2026-04-20 20:07 | 27.70799 | -97.54089 | 13825 ft | 318 kts | 14° |
| 2026-04-20 20:08 | 27.72885 | -97.53174 | 14664 ft | 329 kts | 22° |
| 2026-04-20 20:08 | 27.74996 | -97.52006 | 15297 ft | 344 kts | 23° |
| 2026-04-20 20:08 | 27.77207 | -97.50872 | 16004 ft | 353 kts | 20° |
| 2026-04-20 20:08 | 27.79471 | -97.49767 | 16850 ft | 357 kts | 20° |
| 2026-04-20 20:09 | 27.81767 | -97.48656 | 17671 ft | 361 kts | 20° |
| 2026-04-20 20:09 | 27.84089 | -97.47533 | 18479 ft | 365 kts | 20° |
| 2026-04-20 20:09 | 27.86447 | -97.46393 | 18996 ft | 376 kts | 19° |
| 2026-04-20 20:09 | 27.88889 | -97.45176 | 19337 ft | 392 kts | 23° |
| 2026-04-20 20:10 | 27.91270 | -97.43567 | 19828 ft | 404 kts | 33° |
| 2026-04-20 20:10 | 27.93534 | -97.41646 | 20482 ft | 409 kts | 34° |
| 2026-04-20 20:10 | 27.95792 | -97.39651 | 21123 ft | 414 kts | 35° |
| 2026-04-20 20:10 | 27.98066 | -97.37620 | 21763 ft | 419 kts | 35° |
| 2026-04-20 20:11 | 28.00336 | -97.35586 | 22376 ft | 424 kts | 35° |
| 2026-04-20 20:11 | 28.02660 | -97.33504 | 23008 ft | 428 kts | 35° |
| 2026-04-20 20:11 | 28.05006 | -97.31401 | 23604 ft | 432 kts | 35° |
| 2026-04-20 20:11 | 28.07377 | -97.29274 | 24127 ft | 436 kts | 35° |
| 2026-04-20 20:12 | 28.09769 | -97.27127 | 24619 ft | 440 kts | 35° |
| 2026-04-20 20:12 | 28.12204 | -97.24944 | 24785 ft | 454 kts | 35° |
| 2026-04-20 20:12 | 28.14691 | -97.22707 | 25050 ft | 452 kts | 35° |
| 2026-04-20 20:13 | 28.19427 | -97.18453 | 25200 ft | 441 kts | 34° |
| 2026-04-20 20:13 | 28.21869 | -97.16256 | 25228 ft | 455 kts | 35° |
| 2026-04-20 20:13 | 28.24372 | -97.14000 | 25252 ft | 460 kts | 35° |
| 2026-04-20 20:13 | 28.26882 | -97.11737 | 25225 ft | 460 kts | 35° |
| 2026-04-20 20:14 | 28.29386 | -97.09479 | 25212 ft | 460 kts | 35° |
| 2026-04-20 20:14 | 28.31892 | -97.07221 | 25221 ft | 460 kts | 35° |
| 2026-04-20 20:14 | 28.34397 | -97.04959 | 25229 ft | 460 kts | 35° |
| 2026-04-20 20:14 | 28.36873 | -97.02723 | 25230 ft | 460 kts | 35° |
| 2026-04-20 20:15 | 28.39380 | -97.00458 | 25244 ft | 460 kts | 35° |
| 2026-04-20 20:15 | 28.41884 | -96.98193 | 25236 ft | 460 kts | 35° |
| 2026-04-20 20:15 | 28.44395 | -96.95922 | 25227 ft | 460 kts | 35° |
| 2026-04-20 20:15 | 28.46896 | -96.93658 | 25237 ft | 460 kts | 35° |
| 2026-04-20 20:16 | 28.49399 | -96.91390 | 25228 ft | 460 kts | 35° |
| 2026-04-20 20:16 | 28.51904 | -96.89119 | 25224 ft | 460 kts | 35° |
| 2026-04-20 20:16 | 28.54401 | -96.86854 | 25247 ft | 460 kts | 35° |
| 2026-04-20 20:16 | 28.56907 | -96.84579 | 25263 ft | 460 kts | 35° |
| 2026-04-20 20:17 | 28.59405 | -96.82311 | 25254 ft | 459 kts | 35° |
| 2026-04-20 20:17 | 28.61062 | -96.80805 | 25245 ft | 459 kts | 35° |
| 2026-04-20 20:17 | 28.63557 | -96.78536 | 25246 ft | 460 kts | 35° |
| 2026-04-20 20:17 | 28.66060 | -96.76260 | 25258 ft | 459 kts | 35° |
| 2026-04-20 20:18 | 28.68555 | -96.73988 | 25246 ft | 459 kts | 35° |
| 2026-04-20 20:18 | 28.71049 | -96.71715 | 25245 ft | 459 kts | 35° |
| 2026-04-20 20:18 | 28.73543 | -96.69440 | 25250 ft | 459 kts | 35° |
| 2026-04-20 20:18 | 28.76037 | -96.67164 | 25258 ft | 459 kts | 35° |
| 2026-04-20 20:19 | 28.78527 | -96.64891 | 25246 ft | 459 kts | 35° |
| 2026-04-20 20:19 | 28.81135 | -96.62801 | 25246 ft | 455 kts | 27° |
| 2026-04-20 20:19 | 28.83906 | -96.61066 | 25191 ft | 454 kts | 23° |
| 2026-04-20 20:19 | 28.86747 | -96.59684 | 24952 ft | 448 kts | 17° |
| 2026-04-20 20:20 | 28.89655 | -96.58400 | 24719 ft | 448 kts | 17° |
| 2026-04-20 20:20 | 28.92581 | -96.57153 | 24490 ft | 449 kts | 17° |
| 2026-04-20 20:20 | 28.95511 | -96.55909 | 24264 ft | 449 kts | 16° |
| 2026-04-20 20:20 | 28.98440 | -96.54666 | 24045 ft | 449 kts | 17° |
| 2026-04-20 20:21 | 29.01373 | -96.53421 | 23826 ft | 450 kts | 17° |
| 2026-04-20 20:21 | 29.04310 | -96.52172 | 23561 ft | 451 kts | 17° |
| 2026-04-20 20:21 | 29.07250 | -96.50922 | 23285 ft | 452 kts | 17° |
| 2026-04-20 20:21 | 29.10197 | -96.49668 | 22946 ft | 451 kts | 17° |
| 2026-04-20 20:22 | 29.13120 | -96.48422 | 22525 ft | 446 kts | 17° |
| 2026-04-20 20:22 | 29.16009 | -96.47192 | 22053 ft | 438 kts | 17° |
| 2026-04-20 20:22 | 29.18810 | -96.45996 | 21566 ft | 420 kts | 17° |
| 2026-04-20 20:22 | 29.21500 | -96.44849 | 21057 ft | 405 kts | 17° |
| 2026-04-20 20:23 | 29.24104 | -96.43738 | 20557 ft | 394 kts | 17° |
| 2026-04-20 20:23 | 29.26643 | -96.42656 | 20011 ft | 387 kts | 16° |
| 2026-04-20 20:23 | 29.29135 | -96.41598 | 19315 ft | 387 kts | 18° |
| 2026-04-20 20:23 | 29.31588 | -96.40322 | 18646 ft | 386 kts | 22° |
| 2026-04-20 20:24 | 29.33974 | -96.39004 | 17884 ft | 375 kts | 22° |
| 2026-04-20 20:24 | 29.36288 | -96.37702 | 17108 ft | 366 kts | 23° |
| 2026-04-20 20:24 | 29.38548 | -96.36427 | 16336 ft | 357 kts | 23° |
| 2026-04-20 20:24 | 29.40755 | -96.35180 | 15600 ft | 351 kts | 23° |
| 2026-04-20 20:25 | 29.42926 | -96.33947 | 14902 ft | 345 kts | 25° |
| 2026-04-20 20:25 | 29.44951 | -96.32503 | 14195 ft | 339 kts | 34° |
| 2026-04-20 20:25 | 29.46765 | -96.30808 | 13511 ft | 334 kts | 40° |
| 2026-04-20 20:25 | 29.48421 | -96.29003 | 13203 ft | 324 kts | 46° |
| 2026-04-20 20:26 | 29.49853 | -96.27031 | 13061 ft | 321 kts | 51° |
| 2026-04-20 20:26 | 29.51238 | -96.25001 | 13014 ft | 324 kts | 51° |
| 2026-04-20 20:26 | 29.52634 | -96.22947 | 12698 ft | 326 kts | 50° |
| 2026-04-20 20:26 | 29.54069 | -96.20953 | 12325 ft | 322 kts | 49° |
| 2026-04-20 20:27 | 29.55529 | -96.19033 | 11863 ft | 318 kts | 45° |
| 2026-04-20 20:27 | 29.57102 | -96.17260 | 11380 ft | 315 kts | 43° |
| 2026-04-20 20:27 | 29.58684 | -96.15534 | 10906 ft | 313 kts | 43° |
| 2026-04-20 20:27 | 29.60262 | -96.13829 | 10491 ft | 308 kts | 43° |
| 2026-04-20 20:28 | 29.61807 | -96.12160 | 10155 ft | 302 kts | 43° |
| 2026-04-20 20:28 | 29.63324 | -96.10523 | 9767 ft | 297 kts | 43° |
| 2026-04-20 20:28 | 29.64815 | -96.08908 | 9362 ft | 292 kts | 43° |
| 2026-04-20 20:28 | 29.66266 | -96.07339 | 8991 ft | 288 kts | 44° |
| 2026-04-20 20:29 | 29.67714 | -96.05769 | 8615 ft | 284 kts | 44° |
| 2026-04-20 20:29 | 29.69139 | -96.04225 | 8253 ft | 280 kts | 44° |
| 2026-04-20 20:29 | 29.70569 | -96.02737 | 7966 ft | 274 kts | 43° |
| 2026-04-20 20:29 | 29.72001 | -96.01320 | 7733 ft | 270 kts | 42° |
| 2026-04-20 20:30 | 29.73502 | -96.00004 | 7495 ft | 271 kts | 37° |
| 2026-04-20 20:30 | 29.75049 | -95.98779 | 7277 ft | 268 kts | 36° |
| 2026-04-20 20:30 | 29.76571 | -95.97591 | 7039 ft | 261 kts | 37° |
| 2026-04-20 20:30 | 29.78058 | -95.96428 | 6793 ft | 256 kts | 36° |
| 2026-04-20 20:31 | 29.79517 | -95.95288 | 6545 ft | 251 kts | 37° |
| 2026-04-20 20:31 | 29.80945 | -95.94174 | 6284 ft | 246 kts | 36° |
| 2026-04-20 20:31 | 29.82357 | -95.93077 | 6027 ft | 243 kts | 37° |
| 2026-04-20 20:31 | 29.83746 | -95.91990 | 5789 ft | 239 kts | 37° |
| 2026-04-20 20:32 | 29.85100 | -95.90929 | 5580 ft | 231 kts | 37° |
| 2026-04-20 20:32 | 29.86423 | -95.89899 | 5360 ft | 228 kts | 38° |
| 2026-04-20 20:32 | 29.87741 | -95.88881 | 5165 ft | 228 kts | 38° |
| 2026-04-20 20:32 | 29.89061 | -95.87869 | 5093 ft | 227 kts | 37° |
| 2026-04-20 20:33 | 29.90385 | -95.86859 | 5028 ft | 227 kts | 37° |
| 2026-04-20 20:33 | 29.91703 | -95.85846 | 5003 ft | 227 kts | 37° |
| 2026-04-20 20:33 | 29.93022 | -95.84827 | 4986 ft | 229 kts | 37° |
| 2026-04-20 20:33 | 29.94274 | -95.83714 | 4992 ft | 227 kts | 44° |
| 2026-04-20 20:34 | 29.95446 | -95.82502 | 4992 ft | 225 kts | 46° |
| 2026-04-20 20:34 | 29.96586 | -95.81286 | 4985 ft | 226 kts | 48° |
| 2026-04-20 20:34 | 29.97434 | -95.79813 | 4973 ft | 219 kts | 75° |
| 2026-04-20 20:34 | 29.97609 | -95.78089 | 4957 ft | 217 kts | 92° |
| 2026-04-20 20:35 | 29.97610 | -95.76345 | 4777 ft | 217 kts | 91° |
| 2026-04-20 20:35 | 29.97658 | -95.74609 | 4508 ft | 215 kts | 91° |
| 2026-04-20 20:35 | 29.97661 | -95.72894 | 4266 ft | 213 kts | 93° |
| 2026-04-20 20:35 | 29.97663 | -95.71199 | 4096 ft | 210 kts | 92° |
| 2026-04-20 20:36 | 29.97675 | -95.69506 | 4030 ft | 211 kts | 92° |
| 2026-04-20 20:36 | 29.97680 | -95.67807 | 4008 ft | 212 kts | 92° |
| 2026-04-20 20:36 | 29.97685 | -95.66101 | 4018 ft | 213 kts | 92° |
| 2026-04-20 20:36 | 29.97692 | -95.64392 | 4028 ft | 212 kts | 92° |
| 2026-04-20 20:37 | 29.97697 | -95.62688 | 4023 ft | 212 kts | 92° |
| 2026-04-20 20:37 | 29.97702 | -95.60979 | 4027 ft | 214 kts | 92° |
| 2026-04-20 20:37 | 29.97708 | -95.59279 | 4030 ft | 212 kts | 92° |
| 2026-04-20 20:37 | 29.97712 | -95.57576 | 4015 ft | 213 kts | 92° |
| 2026-04-20 20:38 | 29.97718 | -95.55902 | 3888 ft | 206 kts | 92° |
| 2026-04-20 20:38 | 29.97722 | -95.54265 | 3677 ft | 201 kts | 93° |
| 2026-04-20 20:38 | 29.97726 | -95.52665 | 3422 ft | 196 kts | 93° |
| 2026-04-20 20:38 | 29.97729 | -95.51131 | 3149 ft | 187 kts | 92° |
| 2026-04-20 20:39 | 29.97732 | -95.49680 | 2877 ft | 179 kts | 92° |
| 2026-04-20 20:39 | 29.97736 | -95.48294 | 2676 ft | 165 kts | 92° |
| 2026-04-20 20:39 | 29.97738 | -95.47000 | 2463 ft | 158 kts | 92° |
| 2026-04-20 20:39 | 29.97740 | -95.45774 | 2243 ft | 149 kts | 92° |
| 2026-04-20 20:40 | 29.97743 | -95.44576 | 2065 ft | 150 kts | 92° |
| 2026-04-20 20:40 | 29.97745 | -95.43357 | 1868 ft | 150 kts | 93° |
| 2026-04-20 20:40 | 29.97747 | -95.42238 | 1680 ft | 129 kts | 94° |
| 2026-04-20 20:40 | 29.97748 | -95.41224 | 1498 ft | 126 kts | 93° |
| 2026-04-20 20:41 | 29.97750 | -95.40212 | 1329 ft | 125 kts | 93° |
| 2026-04-20 20:41 | 29.97769 | -95.39216 | 1141 ft | 124 kts | 91° |
| 2026-04-20 20:41 | 29.97789 | -95.38230 | 979 ft | 122 kts | 93° |
| 2026-04-20 20:41 | 29.97766 | -95.37249 | 841 ft | 124 kts | 91° |
| 2026-04-20 20:42 | 29.97753 | -95.36259 | 674 ft | 124 kts | 90° |
| 2026-04-20 20:42 | 29.97773 | -95.35264 | 498 ft | 125 kts | 94° |
| 2026-04-20 20:42 | 29.97761 | -95.34262 | 322 ft | 124 kts | 92° |
| 2026-04-20 20:42 | 29.97760 | -95.33266 | 138 ft | 123 kts | 93° |
| 2026-04-20 20:43 | 29.97757 | -95.32397 | 103 ft | 86 kts | 88° |
| 2026-04-20 20:43 | 29.97759 | -95.31953 | 104 ft | 43 kts | 89° |
| 2026-04-20 20:43 | 29.97763 | -95.31650 | 106 ft | 34 kts | 86° |
| 2026-04-20 20:43 | 29.97790 | -95.31491 | 106 ft | 19 kts | 70° |
| 2026-04-20 20:44 | 29.97829 | -95.31395 | 106 ft | 11 kts | 61° |
| 2026-04-20 20:44 | 29.97874 | -95.31305 | 105 ft | 10 kts | 58° |
| 2026-04-20 20:44 | 29.97939 | -95.31280 | 105 ft | 11 kts | 343° |
| 2026-04-20 20:44 | 29.97970 | -95.31363 | 105 ft | 15 kts | 269° |
| 2026-04-20 20:45 | 29.97970 | -95.31524 | 105 ft | 24 kts | 269° |
| 2026-04-20 20:45 | 29.98376 | -95.33211 | 105 ft | 0 kts | 359° |